Time;durP1;ratioP1;P1;durP2;ratioP2;P2;SDS_P1;SDS_P2;PMS_P1;PMS_P2;Temp;Humidity;BMP_temperature;BMP_pressure;BME280_temperature;BME280_humidity;BME280_pressure;Samples;Min_cycle;Max_cycle;Signal;HPM_P1;HPM_P2
2022/05/06 00:00:32;;;;;;;4.20;3.23;;;;;;;11.46;75.57;101958.63;5001497;28;20773;-52
2022/05/06 00:02:58;;;;;;;5.97;3.70;;;;;;;11.39;76.09;101955.03;4989374;28;20296;-52
2022/05/06 00:05:25;;;;;;;3.47;3.17;;;;;;;11.37;76.22;101953.22;5008239;28;20292;-58
2022/05/06 00:07:52;;;;;;;4.37;3.60;;;;;;;11.35;76.63;101957.59;5004121;28;21072;-52
2022/05/06 00:10:19;;;;;;;5.77;4.17;;;;;;;11.35;77.06;101960.22;5010489;28;20229;-52
2022/05/06 00:12:45;;;;;;;7.70;3.90;;;;;;;11.29;77.76;101961.00;5004324;28;20735;-53
2022/05/06 00:15:12;;;;;;;4.30;3.47;;;;;;;11.25;78.62;101955.69;5015128;28;20255;-52
2022/05/06 00:17:38;;;;;;;10.00;5.17;;;;;;;11.18;78.47;101968.72;5018892;28;20233;-55
2022/05/06 00:20:06;;;;;;;4.73;3.50;;;;;;;11.12;78.72;101963.34;5012332;28;20240;-53
2022/05/06 00:22:32;;;;;;;5.83;4.07;;;;;;;11.08;78.99;101963.28;5018575;28;20235;-55
2022/05/06 00:25:00;;;;;;;6.13;3.87;;;;;;;10.96;79.34;101961.34;5020304;28;20257;-51
2022/05/06 00:27:26;;;;;;;4.83;3.70;;;;;;;10.89;79.80;101960.34;5010467;28;20848;-53
2022/05/06 00:29:52;;;;;;;7.50;3.70;;;;;;;10.88;80.41;101958.59;5003241;28;20256;-51
2022/05/06 00:32:19;;;;;;;5.80;4.20;;;;;;;10.87;80.18;101959.41;4997805;28;20312;-54
2022/05/06 00:34:45;;;;;;;4.00;3.47;;;;;;;10.82;80.54;101962.84;5013941;28;20233;-52
2022/05/06 00:37:11;;;;;;;6.47;4.27;;;;;;;10.92;80.21;101963.03;5005934;28;20234;-53
2022/05/06 00:39:38;;;;;;;6.03;4.13;;;;;;;10.93;80.29;101962.16;5007633;28;20240;-53
2022/05/06 00:42:06;;;;;;;5.47;3.90;;;;;;;10.97;81.12;101963.09;5007462;28;20311;-52
2022/05/06 00:44:33;;;;;;;4.57;3.77;;;;;;;10.96;80.93;101962.22;5002810;28;20296;-52
2022/05/06 00:46:59;;;;;;;6.53;3.90;;;;;;;10.98;81.80;101960.47;5000054;28;20296;-54
2022/05/06 00:49:26;;;;;;;7.77;4.17;;;;;;;11.03;82.27;101959.72;5008370;28;20260;-52
2022/05/06 00:51:53;;;;;;;4.10;3.70;;;;;;;11.03;82.83;101962.34;5024461;28;20240;-52
2022/05/06 00:54:22;;;;;;;7.70;4.50;;;;;;;11.02;83.06;101961.44;5008384;28;20241;-52
2022/05/06 00:56:49;;;;;;;7.00;4.10;;;;;;;11.01;83.41;101961.41;5001912;28;20241;-53
2022/05/06 00:59:17;;;;;;;5.07;3.90;;;;;;;10.99;83.78;101964.91;5008893;28;20719;-52
2022/05/06 01:01:44;;;;;;;6.43;4.60;;;;;;;11.04;84.41;101969.34;4994833;28;20774;-53
2022/05/06 01:04:10;;;;;;;5.77;3.87;;;;;;;10.99;84.53;101974.53;5009096;28;20238;-55
2022/05/06 01:06:37;;;;;;;5.27;4.77;;;;;;;10.86;83.78;101965.53;5009259;28;20241;-53
2022/05/06 01:09:04;;;;;;;5.20;4.70;;;;;;;10.77;83.46;101961.84;5004770;28;20290;-55
2022/05/06 01:11:32;;;;;;;7.93;4.47;;;;;;;10.70;82.95;101966.13;5012078;28;20245;-54
2022/05/06 01:13:59;;;;;;;6.10;4.00;;;;;;;10.67;83.36;101964.34;5006685;28;20252;-56
2022/05/06 01:16:32;;;;;;;5.83;4.60;;;;;;;10.66;83.43;101959.03;5010388;28;20240;-52
2022/05/06 01:18:59;;;;;;;5.67;4.57;;;;;;;10.66;83.19;101957.28;5008656;28;20272;-52
2022/05/06 01:21:27;;;;;;;6.77;4.47;;;;;;;10.68;83.00;101954.72;5006247;28;20238;-52
2022/05/06 01:23:55;;;;;;;6.33;4.40;;;;;;;10.68;83.70;101952.09;4999249;28;20257;-52
2022/05/06 01:26:22;;;;;;;9.60;4.47;;;;;;;10.64;83.93;101953.78;5003798;28;20225;-52
2022/05/06 01:28:50;;;;;;;5.30;4.30;;;;;;;10.62;84.08;101962.47;4997479;28;20248;-52
2022/05/06 01:31:23;;;;;;;5.40;4.83;;;;;;;10.65;83.54;101967.78;5001684;28;20292;-53
2022/05/06 01:33:54;;;;;;;5.57;4.30;;;;;;;10.66;83.39;101970.44;5001699;28;20321;-53
2022/05/06 01:36:23;;;;;;;4.73;4.23;;;;;;;10.69;83.35;101970.50;5002312;28;20857;-52
2022/05/06 01:38:53;;;;;;;11.77;5.27;;;;;;;10.72;83.84;101973.19;4997116;28;20232;-51
2022/05/06 01:41:22;;;;;;;6.27;4.43;;;;;;;10.77;85.16;101970.63;5005112;28;20724;-53
2022/05/06 01:43:53;;;;;;;5.87;4.40;;;;;;;10.75;85.95;101967.97;4991630;28;20593;-55
2022/05/06 01:46:21;;;;;;;9.73;5.70;;;;;;;10.77;86.57;101970.63;4997901;28;20259;-52
2022/05/06 01:48:48;;;;;;;12.23;5.10;;;;;;;10.79;86.01;101973.28;5008209;28;20300;-52
2022/05/06 01:51:16;;;;;;;5.17;4.27;;;;;;;10.74;85.92;101975.84;5007010;28;20351;-54
2022/05/06 01:53:43;;;;;;;6.60;4.10;;;;;;;10.71;86.46;101978.41;5002857;28;20818;-52
2022/05/06 01:56:09;;;;;;;6.33;4.80;;;;;;;10.71;87.36;101978.41;5003779;28;20241;-53
2022/05/06 01:58:37;;;;;;;5.57;4.80;;;;;;;10.70;87.13;101974.00;4995954;28;20276;-52
2022/05/06 02:01:04;;;;;;;5.03;4.53;;;;;;;10.60;87.36;101972.06;5000650;28;20271;-53
2022/05/06 02:06:14;;;;;;;5.63;4.60;;;;;;;10.50;87.32;101976.25;5003236;28;20239;-54
2022/05/06 02:08:41;;;;;;;7.50;5.07;;;;;;;10.46;86.95;101977.94;5007767;28;20777;-52
2022/05/06 02:11:08;;;;;;;6.37;5.13;;;;;;;10.46;86.89;101972.69;5000975;28;20297;-53
2022/05/06 02:13:35;;;;;;;7.97;5.27;;;;;;;10.39;87.70;101968.19;5006586;28;20312;-53
2022/05/06 02:16:03;;;;;;;6.90;5.10;;;;;;;10.32;88.95;101971.53;5002981;28;20832;-53
2022/05/06 02:18:29;;;;;;;7.30;5.10;;;;;;;10.31;89.39;101972.38;5012301;28;20237;-54
2022/05/06 02:20:57;;;;;;;7.13;5.40;;;;;;;10.27;88.82;101973.19;5010828;28;20664;-52
2022/05/06 02:23:23;;;;;;;9.70;5.17;;;;;;;10.24;88.44;101970.44;5004026;28;20328;-52
2022/05/06 02:25:50;;;;;;;9.67;4.57;;;;;;;10.17;88.42;101969.44;5006839;28;20272;-53
2022/05/06 02:28:16;;;;;;;5.47;4.57;;;;;;;10.17;89.06;101971.19;5007624;28;20241;-53
2022/05/06 02:33:30;;;;;;;5.13;3.97;;;;;;;10.01;91.25;101978.75;5005034;28;20291;-53
2022/05/06 02:35:57;;;;;;;5.53;4.90;;;;;;;9.95;92.10;101977.72;5003592;28;20269;-53
2022/05/06 02:38:25;;;;;;;7.67;4.83;;;;;;;9.91;92.13;101968.03;5004781;28;20230;-52
2022/05/06 02:40:51;;;;;;;6.63;5.20;;;;;;;9.84;92.69;101969.63;5002936;28;20300;-54
2022/05/06 02:43:18;;;;;;;5.47;4.97;;;;;;;9.82;92.84;101963.44;5006921;28;20909;-52
2022/05/06 02:45:45;;;;;;;6.67;5.67;;;;;;;9.84;92.98;101972.25;4995790;28;20325;-52
2022/05/06 02:48:11;;;;;;;6.83;4.77;;;;;;;9.84;92.55;101972.25;5004101;28;20261;-55
2022/05/06 02:50:41;;;;;;;5.83;5.23;;;;;;;9.83;93.07;101967.88;4996613;28;20241;-54
2022/05/06 02:53:08;;;;;;;6.80;4.97;;;;;;;9.84;93.24;101972.25;5000212;28;20225;-53
2022/05/06 02:55:34;;;;;;;5.90;5.30;;;;;;;9.82;93.58;101973.94;5000808;28;20237;-52
2022/05/06 02:58:01;;;;;;;6.53;5.60;;;;;;;9.82;93.67;101966.06;5001577;28;20253;-52
2022/05/06 03:00:28;;;;;;;7.97;5.37;;;;;;;9.83;93.86;101978.34;5000672;28;20312;-51
2022/05/06 03:02:55;;;;;;;6.20;5.50;;;;;;;9.82;93.81;101973.94;4998579;28;20237;-53
2022/05/06 03:05:21;;;;;;;7.83;5.97;;;;;;;9.81;94.12;101966.94;4997486;28;20313;-52
2022/05/06 03:07:49;;;;;;;7.63;5.47;;;;;;;9.75;94.09;101966.78;4996992;28;20260;-53
2022/05/06 03:10:16;;;;;;;7.27;5.33;;;;;;;9.76;94.05;101964.22;4999261;28;20243;-53
2022/05/06 03:12:43;;;;;;;6.00;5.43;;;;;;;9.76;94.02;101966.84;4999922;28;20336;-53
2022/05/06 03:15:11;;;;;;;6.53;5.83;;;;;;;9.74;94.77;101975.50;5000683;28;20265;-52
2022/05/06 03:17:37;;;;;;;8.27;5.33;;;;;;;9.71;95.01;101972.81;4999976;28;20767;-52
2022/05/06 03:20:08;;;;;;;6.00;5.40;;;;;;;9.66;95.27;101970.09;4998657;28;20238;-57
2022/05/06 03:22:36;;;;;;;8.10;6.00;;;;;;;9.67;95.80;101978.84;4994376;28;20369;-52
2022/05/06 03:25:04;;;;;;;6.97;5.83;;;;;;;9.72;95.56;101974.59;4998653;28;20258;-52
2022/05/06 03:30:15;;;;;;;10.23;6.37;;;;;;;9.73;95.94;101979.00;4998380;28;20608;-52
2022/05/06 03:32:41;;;;;;;8.43;6.40;;;;;;;9.70;96.61;101973.69;5002479;28;20747;-53
2022/05/06 03:35:09;;;;;;;6.97;6.10;;;;;;;9.70;96.98;101978.94;4997772;28;20224;-52
2022/05/06 03:37:36;;;;;;;8.43;5.77;;;;;;;9.73;97.04;101979.00;5000701;28;20299;-52
2022/05/06 03:40:05;;;;;;;8.63;5.83;;;;;;;9.75;97.26;101977.28;5009891;28;20248;-52
2022/05/06 03:42:31;;;;;;;9.40;7.07;;;;;;;9.81;97.31;101982.66;4998496;28;20269;-52
2022/05/06 03:44:58;;;;;;;8.13;5.70;;;;;;;9.80;96.74;101986.16;5005313;28;20317;-52
2022/05/06 03:47:24;;;;;;;9.77;6.60;;;;;;;9.83;96.67;101986.22;4998662;28;20223;-52
2022/05/06 03:51:20;;;;;;;7.20;6.50;;;;;;;9.83;96.62;101991.47;5009346;28;20673;-52
2022/05/06 03:52:37;;;;;;;7.33;6.63;;;;;;;9.77;96.47;101986.06;5001870;28;20229;-51
2022/05/06 03:55:06;;;;;;;7.50;6.80;;;;;;;9.69;97.19;101987.66;4998037;28;20237;-52
2022/05/06 03:57:32;;;;;;;7.73;6.03;;;;;;;9.64;97.57;101991.88;5006041;28;21238;-52
2022/05/06 03:59:58;;;;;;;10.60;5.90;;;;;;;9.65;98.12;101993.66;5006952;28;20711;-52
2022/05/06 04:02:25;;;;;;;8.07;7.27;;;;;;;9.63;99.10;101998.00;5005642;28;20234;-52
2022/05/06 04:04:51;;;;;;;7.73;6.90;;;;;;;9.58;98.96;101995.25;4999063;28;20300;-53
2022/05/06 04:07:17;;;;;;;11.13;6.30;;;;;;;9.51;99.42;101996.88;5004916;28;20233;-52
2022/05/06 04:09:44;;;;;;;8.53;7.00;;;;;;;9.50;99.00;102002.94;4993160;28;20242;-52
2022/05/06 04:12:12;;;;;;;7.50;6.80;;;;;;;9.48;98.87;102004.66;5007922;28;20331;-54
2022/05/06 04:14:38;;;;;;;11.33;6.73;;;;;;;9.51;98.55;102003.81;4993150;28;20314;-52
2022/05/06 04:17:05;;;;;;;8.80;6.57;;;;;;;9.54;97.79;102012.63;5004675;28;20334;-53
2022/05/06 04:19:32;;;;;;;10.03;7.33;;;;;;;9.54;97.03;102010.00;5017550;28;20233;-53
2022/05/06 04:24:42;;;;;;;9.93;6.70;;;;;;;9.57;95.69;102017.06;5000925;28;20641;-53
2022/05/06 04:27:08;;;;;;;5.67;5.17;;;;;;;9.59;95.33;102017.13;5006737;28;20229;-53
2022/05/06 04:29:36;;;;;;;9.07;6.83;;;;;;;9.62;94.44;102025.97;5005918;28;20232;-54
2022/05/06 04:32:02;;;;;;;8.90;6.47;;;;;;;9.66;93.61;102029.53;5003643;28;20265;-52
2022/05/06 04:34:29;;;;;;;7.00;6.07;;;;;;;9.66;93.26;102030.41;5004856;28;20621;-52
2022/05/06 04:36:55;;;;;;;5.47;5.00;;;;;;;9.66;93.00;102030.41;5007210;28;20256;-52
2022/05/06 04:39:22;;;;;;;5.37;4.87;;;;;;;9.68;92.90;102028.69;5004251;28;20229;-52
2022/05/06 04:41:49;;;;;;;7.87;5.47;;;;;;;9.70;91.98;102036.63;5001879;28;20636;-52
2022/05/06 04:44:15;;;;;;;6.50;5.33;;;;;;;9.74;91.62;102034.09;5001749;28;20236;-51
2022/05/06 04:46:43;;;;;;;6.57;5.90;;;;;;;9.75;91.61;102037.59;4998007;28;20618;-53
2022/05/06 04:49:09;;;;;;;5.80;5.07;;;;;;;9.77;91.43;102038.53;5002174;28;20774;-52
2022/05/06 04:51:35;;;;;;;6.60;5.07;;;;;;;9.81;91.27;102043.00;5006901;28;20298;-54
2022/05/06 04:54:02;;;;;;;6.87;5.30;;;;;;;9.80;90.92;102043.84;5006737;28;20240;-52
2022/05/06 04:56:28;;;;;;;6.43;5.33;;;;;;;9.86;90.27;102050.97;5000480;28;20230;-52
2022/05/06 04:58:54;;;;;;;8.73;5.23;;;;;;;9.87;89.65;102045.75;5001242;28;20667;-51
2022/05/06 05:01:22;;;;;;;6.97;5.70;;;;;;;9.89;89.14;102049.28;5008595;28;20268;-54
2022/05/06 05:03:49;;;;;;;6.63;4.80;;;;;;;9.93;88.78;102056.41;5002864;28;20241;-52
2022/05/06 05:06:16;;;;;;;6.37;4.73;;;;;;;9.93;88.00;102050.25;5004072;28;20242;-52
2022/05/06 05:08:42;;;;;;;5.30;4.27;;;;;;;9.93;88.20;102056.41;5006776;28;20233;-53
2022/05/06 05:11:08;;;;;;;5.43;4.83;;;;;;;9.97;88.17;102062.63;4997673;28;20244;-52
2022/05/06 05:13:38;;;;;;;6.37;4.70;;;;;;;9.96;88.73;102055.56;5003413;28;20232;-53
2022/05/06 05:16:05;;;;;;;5.63;4.50;;;;;;;9.98;89.53;102054.75;4998934;28;20707;-53
2022/05/06 05:18:31;;;;;;;5.90;4.60;;;;;;;10.01;90.48;102054.84;5005833;28;20777;-53
2022/05/06 05:20:59;;;;;;;9.10;6.00;;;;;;;10.02;91.34;102059.22;5004707;28;20237;-52
2022/05/06 05:23:26;;;;;;;7.83;4.77;;;;;;;10.09;91.07;102060.25;5003891;28;20727;-54
2022/05/06 05:25:52;;;;;;;5.10;4.60;;;;;;;10.14;91.18;102065.59;4999359;28;20292;-52
2022/05/06 05:28:18;;;;;;;5.87;5.23;;;;;;;10.16;89.99;102062.16;5002556;28;20237;-51
2022/05/06 05:30:45;;;;;;;4.90;4.50;;;;;;;10.19;89.31;102066.59;4991433;28;20734;-52
2022/05/06 05:33:11;;;;;;;5.70;5.20;;;;;;;10.26;88.91;102063.28;5009311;28;20781;-53
2022/05/06 05:35:38;;;;;;;6.30;4.87;;;;;;;10.29;88.18;102073.84;5002765;28;20237;-52
2022/05/06 05:38:06;;;;;;;5.40;4.90;;;;;;;10.36;87.82;102073.13;5004163;28;20253;-53
2022/05/06 05:40:33;;;;;;;11.70;5.17;;;;;;;10.37;87.88;102069.63;5005767;28;25536;-52
2022/05/06 05:42:59;;;;;;;10.17;5.47;;;;;;;10.37;87.98;102074.91;5002748;28;20253;-54
2022/05/06 05:48:21;;;;;;;9.57;5.93;;;;;;;10.52;88.56;102072.56;4998061;28;20240;-51
2022/05/06 05:50:48;;;;;;;6.33;4.47;;;;;;;10.61;88.72;102065.75;5007437;28;20240;-52
2022/05/06 05:53:16;;;;;;;8.63;5.40;;;;;;;10.68;88.48;102075.53;4998349;28;20236;-53
2022/05/06 05:55:42;;;;;;;9.67;5.60;;;;;;;10.76;88.35;102063.44;5004138;28;20252;-53
2022/05/06 05:58:08;;;;;;;6.17;5.33;;;;;;;10.83;88.39;102061.81;4991719;28;20244;-53
2022/05/06 06:00:36;;;;;;;8.98;5.38;;;;;;;10.93;87.96;102067.28;4997692;28;20257;-53
2022/05/06 06:03:02;;;;;;;8.27;5.10;;;;;;;11.04;88.00;102069.22;4997075;28;20225;-53
2022/05/06 06:05:28;;;;;;;12.20;7.73;;;;;;;11.12;87.67;102072.84;4998832;28;20299;-53
2022/05/06 06:07:55;;;;;;;11.97;6.83;;;;;;;11.22;86.83;102069.53;5001895;28;20331;-53
2022/05/06 06:10:22;;;;;;;6.03;4.27;;;;;;;11.33;85.51;102067.97;5000442;28;20299;-53
2022/05/06 06:12:49;;;;;;;6.47;5.67;;;;;;;11.42;84.90;102069.91;4995157;28;20261;-53
2022/05/06 06:15:15;;;;;;;5.40;4.72;;;;;;;11.47;84.77;102069.09;4996125;28;20249;-53
2022/05/06 06:17:42;;;;;;;4.25;3.85;;;;;;;11.57;84.48;102077.16;5001881;28;20237;-53
2022/05/06 06:20:09;;;;;;;5.35;3.83;;;;;;;11.67;84.52;102073.81;4999980;28;20867;-53
2022/05/06 06:22:36;;;;;;;4.40;4.00;;;;;;;11.78;83.50;102072.22;5000608;28;20237;-53
2022/05/06 06:25:02;;;;;;;4.55;3.78;;;;;;;11.88;82.70;102076.81;5001462;28;20289;-52
2022/05/06 06:27:31;;;;;;;7.90;4.28;;;;;;;11.94;80.21;102086.56;4993863;28;20584;-53
2022/05/06 06:29:58;;;;;;;4.78;3.17;;;;;;;12.00;78.99;102083.13;5003574;28;20229;-52
2022/05/06 06:32:24;;;;;;;4.00;3.13;;;;;;;12.06;78.51;102077.94;5003237;28;20232;-52
2022/05/06 06:34:51;;;;;;;3.67;3.38;;;;;;;12.13;78.31;102082.44;5008923;28;20693;-52
2022/05/06 06:37:17;;;;;;;4.43;3.45;;;;;;;12.22;77.99;102079.94;5002935;28;20381;-53
2022/05/06 06:39:44;;;;;;;8.05;3.45;;;;;;;12.31;77.00;102085.31;5003531;28;20236;-52
2022/05/06 06:42:10;;;;;;;3.28;3.05;;;;;;;12.42;76.45;102090.72;5001976;28;20849;-53
2022/05/06 06:44:38;;;;;;;2.88;2.60;;;;;;;12.50;75.46;102082.94;5008961;28;20893;-55
2022/05/06 06:47:08;;;;;;;4.68;2.60;;;;;;;12.60;75.26;102082.16;4999911;28;20958;-52
2022/05/06 06:49:35;;;;;;;4.10;3.22;;;;;;;12.71;74.90;102083.22;5003728;28;20272;-53
2022/05/06 06:52:02;;;;;;;5.63;2.85;;;;;;;12.83;74.19;102090.38;4997006;28;20244;-53
2022/05/06 06:54:28;;;;;;;2.58;2.38;;;;;;;12.92;73.61;102089.56;5007538;28;20245;-52
2022/05/06 06:56:54;;;;;;;4.93;2.65;;;;;;;13.05;73.08;102091.47;5003908;28;20264;-52
2022/05/06 06:59:21;;;;;;;3.72;3.05;;;;;;;13.15;71.89;102088.06;5001461;28;20233;-53
2022/05/06 07:01:48;;;;;;;2.80;2.60;;;;;;;13.31;70.55;102089.16;5002576;28;20261;-53
2022/05/06 07:04:15;;;;;;;4.45;3.17;;;;;;;13.38;69.86;102090.09;5005407;28;20252;-53
2022/05/06 07:12:10;;;;;;;5.53;3.40;;;;;;;13.72;69.85;102100.03;5012213;28;20267;-52
2022/05/06 07:14:36;;;;;;;3.58;3.13;;;;;;;13.83;69.43;102103.69;5008378;28;20245;-52
2022/05/06 07:17:05;;;;;;;6.35;3.78;;;;;;;13.93;68.63;102101.09;5001046;28;20239;-54
2022/05/06 07:19:32;;;;;;;2.88;2.40;;;;;;;14.06;68.37;102113.50;5004238;28;20727;-53
2022/05/06 07:21:58;;;;;;;8.35;5.30;;;;;;;14.21;68.80;102102.16;5014698;28;20241;-53
2022/05/06 07:24:25;;;;;;;6.18;4.55;;;;;;;14.16;66.87;102104.78;5002141;28;20729;-52
2022/05/06 07:26:53;;;;;;;6.28;4.25;;;;;;;14.15;67.10;102103.00;5005985;28;20245;-51
2022/05/06 07:29:20;;;;;;;7.55;4.28;;;;;;;14.21;67.08;102104.78;5003979;28;20240;-53
2022/05/06 07:31:47;;;;;;;7.22;4.57;;;;;;;14.15;66.76;102108.28;5015760;28;20244;-54
2022/05/06 07:34:15;;;;;;;6.45;5.70;;;;;;;14.33;67.59;102111.03;5018269;28;20782;-54
2022/05/06 07:36:42;;;;;;;7.47;5.38;;;;;;;14.38;68.04;102115.47;5013298;28;20320;-53
2022/05/06 07:39:10;;;;;;;7.05;5.57;;;;;;;14.55;67.08;102106.78;5011526;28;20247;-52
2022/05/06 07:41:36;;;;;;;8.13;5.72;;;;;;;14.74;66.16;102110.41;5013169;28;20260;-52
2022/05/06 07:44:03;;;;;;;7.03;4.95;;;;;;;14.83;66.01;102113.94;5014046;28;20704;-55
2022/05/06 07:46:29;;;;;;;6.32;4.57;;;;;;;14.97;66.12;102113.09;5012413;28;20233;-52
2022/05/06 07:48:55;;;;;;;7.88;6.65;;;;;;;15.20;66.19;102114.94;5006059;28;20650;-54
2022/05/06 07:51:23;;;;;;;7.95;6.53;;;;;;;15.39;64.99;102106.13;5010331;28;20730;-54
2022/05/06 07:53:52;;;;;;;8.05;6.32;;;;;;;15.43;65.35;102114.97;5003375;28;20237;-52
2022/05/06 07:56:18;;;;;;;9.35;6.97;;;;;;;15.44;65.37;102114.06;5003695;28;20236;-53
2022/05/06 07:58:44;;;;;;;9.07;5.80;;;;;;;15.47;65.26;102120.25;5000723;28;20719;-53
2022/05/06 08:01:12;;;;;;;8.90;5.88;;;;;;;15.67;64.65;102120.31;4998604;28;20287;-53
2022/05/06 08:06:24;;;;;;;10.02;5.80;;;;;;;15.96;63.18;102114.09;5000177;28;20294;-54
2022/05/06 08:08:50;;;;;;;7.82;5.65;;;;;;;15.98;63.10;102118.53;4995553;28;20238;-53
2022/05/06 08:11:17;;;;;;;8.30;5.85;;;;;;;16.16;63.00;102112.31;5006170;28;20263;-53
2022/05/06 08:13:44;;;;;;;9.23;5.68;;;;;;;16.28;62.09;102110.50;5000836;28;20607;-52
2022/05/06 08:16:11;;;;;;;9.45;5.07;;;;;;;16.54;61.09;102116.63;5002881;28;20243;-52
2022/05/06 08:18:37;;;;;;;6.72;5.40;;;;;;;16.63;60.18;102113.91;5009859;28;20263;-53
2022/05/06 08:21:04;;;;;;;7.38;5.72;;;;;;;16.78;60.67;102118.34;5005698;28;20279;-52
2022/05/06 08:23:31;;;;;;;7.85;5.57;;;;;;;17.02;58.67;102117.31;5009282;28;20241;-52
2022/05/06 08:25:58;;;;;;;7.13;5.50;;;;;;;17.02;58.19;102109.34;5000749;28;20653;-53
2022/05/06 08:28:24;;;;;;;8.65;5.72;;;;;;;16.91;58.14;102111.19;5003205;28;20371;-53
2022/05/06 08:30:51;;;;;;;6.03;5.43;;;;;;;16.70;58.99;102115.66;5008365;28;20678;-52
2022/05/06 08:33:19;;;;;;;5.63;4.97;;;;;;;16.32;60.00;102118.47;4994495;28;20236;-52
2022/05/06 08:35:45;;;;;;;9.05;5.68;;;;;;;16.14;61.04;102123.78;4997085;28;20233;-53
2022/05/06 08:38:13;;;;;;;6.43;5.82;;;;;;;16.02;61.91;102114.09;5008431;28;20256;-53
2022/05/06 08:40:41;;;;;;;5.50;4.72;;;;;;;15.94;62.53;102118.53;5006862;28;20237;-52
2022/05/06 08:43:08;;;;;;;8.02;5.22;;;;;;;15.90;62.45;102116.75;5016129;28;21408;-52
2022/05/06 08:51:07;;;;;;;9.70;5.88;;;;;;;16.22;60.80;102119.38;4991491;28;20268;-53
2022/05/06 08:53:36;;;;;;;10.07;6.43;;;;;;;16.45;60.27;102108.69;4995628;28;20241;-53
2022/05/06 08:56:04;;;;;;;9.30;6.22;;;;;;;16.70;60.32;102105.06;5000701;28;20245;-52
2022/05/06 08:58:34;;;;;;;6.50;5.40;;;;;;;17.10;58.41;102110.22;4997922;28;20233;-52
2022/05/06 09:01:02;;;;;;;6.78;5.30;;;;;;;17.48;56.66;102111.72;5002914;28;20229;-52
2022/05/06 09:03:29;;;;;;;6.68;4.88;;;;;;;17.67;56.22;102106.25;5004737;28;20320;-52
2022/05/06 09:05:57;;;;;;;6.95;4.60;;;;;;;17.49;56.86;102107.28;5003641;28;20233;-52
2022/05/06 09:08:23;;;;;;;8.30;4.95;;;;;;;17.60;56.76;102106.31;5005932;28;20229;-53
2022/05/06 09:11:00;;;;;;;10.30;5.10;;;;;;;17.90;56.22;102099.00;5003534;28;20263;-52
2022/05/06 09:13:28;;;;;;;9.35;6.03;;;;;;;18.31;53.69;102100.34;4996020;28;20233;-50
2022/05/06 09:19:10;;;;;;;7.50;4.53;;;;;;;18.69;52.69;102091.03;5004597;28;20275;-54
2022/05/06 09:21:37;;;;;;;9.32;5.47;;;;;;;18.92;51.78;102096.97;5004339;28;20646;-51
2022/05/06 09:24:15;;;;;;;6.72;4.22;;;;;;;19.11;49.64;102094.03;5006579;28;20320;-53
2022/05/06 09:26:55;;;;;;;4.75;3.60;;;;;;;19.15;49.24;102103.72;5001866;28;20610;-53
2022/05/06 09:29:29;;;;;;;7.22;4.32;;;;;;;19.17;49.43;102094.81;4998128;28;20233;-52
2022/05/06 09:31:56;;;;;;;5.13;4.13;;;;;;;19.33;48.73;102091.91;5012089;28;20233;-52
2022/05/06 09:34:28;;;;;;;6.63;4.55;;;;;;;19.36;49.69;102089.22;5001596;28;20400;-51
2022/05/06 09:36:54;;;;;;;6.25;5.38;;;;;;;19.74;47.57;102096.59;5010921;28;20495;-52
2022/05/06 09:39:22;;;;;;;7.15;4.22;;;;;;;19.23;48.77;102092.03;5004191;28;20237;-54
2022/05/06 09:41:48;;;;;;;5.15;4.40;;;;;;;19.26;48.84;102088.47;4998813;28;20273;-52
2022/05/06 09:44:16;;;;;;;5.45;4.53;;;;;;;18.78;49.08;102090.94;5004654;28;20256;-52
2022/05/06 09:46:44;;;;;;;7.03;4.50;;;;;;;18.75;50.25;102090.97;5004648;28;20241;-52
2022/05/06 09:49:11;;;;;;;7.40;4.55;;;;;;;18.72;50.50;102091.03;4982192;28;20800;-52
2022/05/06 09:51:38;;;;;;;4.88;4.00;;;;;;;18.35;51.07;102094.06;4984605;28;20596;-52
2022/05/06 09:54:05;;;;;;;4.97;3.90;;;;;;;18.15;51.97;102089.00;4998224;28;20229;-52
2022/05/06 09:56:31;;;;;;;5.45;3.08;;;;;;;18.43;52.09;102088.66;5006379;28;21066;-52
2022/05/06 09:58:58;;;;;;;8.18;3.80;;;;;;;18.94;48.15;102081.84;5005674;28;20893;-53
2022/05/06 10:01:24;;;;;;;5.30;3.30;;;;;;;19.04;47.31;102083.47;5004262;28;20272;-52
2022/05/06 10:03:54;;;;;;;4.18;2.75;;;;;;;19.36;47.95;102079.44;4986403;28;20234;-53
2022/05/06 10:06:21;;;;;;;2.92;2.40;;;;;;;19.62;47.47;102083.44;5004221;28;20866;-51
2022/05/06 10:08:49;;;;;;;5.03;2.95;;;;;;;20.00;46.80;102075.66;5004367;28;20233;-52
2022/05/06 10:11:19;;;;;;;3.15;2.85;;;;;;;20.08;45.27;102077.31;5001252;28;20318;-52
2022/05/06 10:13:46;;;;;;;2.63;2.42;;;;;;;20.59;45.04;102067.41;5003109;28;20233;-52
2022/05/06 10:16:13;;;;;;;3.65;2.88;;;;;;;21.10;42.80;102076.97;5000918;28;20294;-51
2022/05/06 10:18:41;;;;;;;4.28;3.22;;;;;;;21.08;42.16;102073.47;5005254;28;20314;-53
2022/05/06 10:21:09;;;;;;;3.35;2.67;;;;;;;20.77;42.73;102066.13;5000317;28;20249;-52
2022/05/06 10:23:50;;;;;;;3.80;3.20;;;;;;;20.22;43.31;102077.94;5003242;28;20325;-53
2022/05/06 10:26:42;;;;;;;3.85;2.55;;;;;;;19.81;43.51;102076.94;5005123;28;20233;-53
2022/05/06 10:34:35;;;;;;;3.35;2.85;;;;;;;20.15;42.84;102065.66;4976657;28;20229;-52
2022/05/06 10:37:15;;;;;;;3.20;2.15;;;;;;;20.49;43.27;102056.03;4989634;28;20303;-53
2022/05/06 10:39:42;;;;;;;2.55;2.35;;;;;;;20.61;42.81;102056.72;4981256;28;20234;-52
2022/05/06 10:42:09;;;;;;;3.83;2.85;;;;;;;20.71;42.02;102066.28;4992206;28;20238;-53
2022/05/06 10:44:38;;;;;;;2.92;2.05;;;;;;;20.86;41.86;102054.38;4997745;28;22959;-52
2022/05/06 10:47:25;;;;;;;1.88;1.77;;;;;;;21.16;41.72;102044.75;4999109;28;20238;-53
2022/05/06 10:49:52;;;;;;;2.95;2.20;;;;;;;21.47;41.13;102052.94;4971574;28;20229;-53
2022/05/06 10:52:48;;;;;;;2.45;2.10;;;;;;;21.16;40.31;102050.09;4994304;28;20234;-51
2022/05/06 10:55:17;;;;;;;2.38;2.03;;;;;;;21.01;41.05;102051.34;4995211;28;20235;-53
2022/05/06 10:58:04;;;;;;;4.72;2.42;;;;;;;21.42;39.92;102045.03;5001804;28;20221;-52
2022/05/06 11:00:33;;;;;;;2.30;2.05;;;;;;;21.59;40.01;102041.06;5000800;28;20268;-54
2022/05/06 11:02:59;;;;;;;5.57;2.85;;;;;;;21.91;39.62;102038.41;4998580;28;20225;-52
2022/05/06 11:05:29;;;;;;;2.90;2.70;;;;;;;22.10;38.31;102037.88;4993509;28;20295;-52
2022/05/06 11:07:58;;;;;;;4.93;2.47;;;;;;;21.97;38.00;102036.47;4997398;28;20295;-51
2022/05/06 11:10:26;;;;;;;2.10;2.00;;;;;;;21.86;38.63;102034.97;5007237;28;20759;-53
2022/05/06 11:12:57;;;;;;;3.83;2.67;;;;;;;21.92;37.13;102036.59;5002051;28;20711;-52
2022/05/06 11:15:25;;;;;;;4.13;2.10;;;;;;;22.04;36.61;102035.38;4991610;28;20226;-53
2022/05/06 11:17:52;;;;;;;2.17;1.98;;;;;;;21.78;38.59;102020.94;4990154;28;20264;-54
2022/05/06 11:20:23;;;;;;;2.22;1.70;;;;;;;22.10;38.63;102027.19;5001871;28;20245;-51
2022/05/06 11:23:01;;;;;;;2.35;1.83;;;;;;;22.11;38.18;102018.22;5003150;28;20257;-52
2022/05/06 11:25:30;;;;;;;2.30;2.10;;;;;;;22.40;37.10;102014.75;5006823;28;20327;-53
2022/05/06 11:27:58;;;;;;;2.20;1.77;;;;;;;22.82;37.93;102012.56;5002364;28;20229;-51
2022/05/06 11:30:26;;;;;;;2.40;1.83;;;;;;;23.09;36.66;102020.66;5000662;28;20238;-53
2022/05/06 11:32:55;;;;;;;5.50;2.08;;;;;;;23.09;36.66;102020.66;5006620;28;20237;-52
2022/05/06 11:35:27;;;;;;;3.50;2.30;;;;;;;22.40;37.46;102020.13;4999222;28;20287;-52
2022/05/06 11:37:55;;;;;;;2.50;2.30;;;;;;;21.79;38.49;102017.34;5000967;28;20269;-53
2022/05/06 11:40:36;;;;;;;3.40;2.10;;;;;;;21.54;39.78;102010.91;5004402;28;20762;-53
2022/05/06 11:43:22;;;;;;;2.45;1.92;;;;;;;21.66;39.31;102013.25;5002145;28;20711;-52
2022/05/06 11:48:40;;;;;;;1.98;1.80;;;;;;;22.50;36.61;102009.97;4997197;28;20240;-53
2022/05/06 11:51:07;;;;;;;1.95;1.83;;;;;;;22.95;35.22;102009.50;5000625;28;20268;-53
2022/05/06 11:53:35;;;;;;;3.20;1.85;;;;;;;23.33;34.55;102006.44;5006632;28;20794;-53
2022/05/06 11:56:04;;;;;;;1.88;1.42;;;;;;;23.15;33.73;102004.38;4994052;28;20287;-51
2022/05/06 11:58:30;;;;;;;1.80;1.30;;;;;;;22.60;34.56;102004.34;5008614;28;20246;-52
2022/05/06 12:00:57;;;;;;;2.08;1.83;;;;;;;22.19;35.83;102002.91;4998876;28;20317;-52
2022/05/06 12:03:24;;;;;;;2.20;2.00;;;;;;;21.56;37.39;102001.94;5005690;28;20234;-52
2022/05/06 12:06:05;;;;;;;4.82;1.70;;;;;;;21.12;39.44;102003.03;5009032;28;20233;-52
2022/05/06 12:08:33;;;;;;;1.60;1.50;;;;;;;20.97;40.45;102002.47;5003969;28;20236;-53